createdAt,value
2022-11-04T00:01:04.984Z,4.07
2022-11-04T00:03:53.213Z,4.50
2022-11-04T00:06:40.733Z,4.03
2022-11-04T00:09:30.079Z,4.07
2022-11-04T00:12:25.922Z,3.87
2022-11-04T00:15:31.391Z,3.90
2022-11-04T00:18:18.432Z,3.80
2022-11-04T00:21:24.176Z,4.03
2022-11-04T00:24:31.190Z,3.80
2022-11-04T00:27:39.091Z,4.40
2022-11-04T00:30:26.270Z,4.30
2022-11-04T00:33:25.759Z,4.00
2022-11-04T00:36:12.683Z,4.40
2022-11-04T00:38:59.637Z,4.40
2022-11-04T00:41:46.562Z,4.43
2022-11-04T00:44:33.520Z,4.40
2022-11-04T00:47:20.482Z,4.80
2022-11-04T00:50:08.064Z,5.40
2022-11-04T00:53:02.011Z,4.33
2022-11-04T00:55:48.950Z,5.33
2022-11-04T00:58:35.909Z,4.60
2022-11-04T01:01:22.984Z,4.53
2022-11-04T01:04:10.082Z,5.50
2022-11-04T01:06:57.138Z,5.07
2022-11-04T01:09:44.078Z,5.57
2022-11-04T01:12:31.078Z,4.93
2022-11-04T01:15:18.015Z,4.53
2022-11-04T01:18:05.729Z,4.50
2022-11-04T01:20:53.374Z,4.83
2022-11-04T01:23:42.082Z,4.73
2022-11-04T01:26:30.166Z,5.10
2022-11-04T01:29:17.178Z,5.43
2022-11-04T01:32:04.186Z,4.40
2022-11-04T01:34:51.137Z,4.93
2022-11-04T01:37:38.104Z,5.13
2022-11-04T01:40:25.657Z,5.30
2022-11-04T01:43:18.049Z,5.23
2022-11-04T01:46:05.130Z,4.80
2022-11-04T01:48:53.488Z,5.90
2022-11-04T01:51:42.537Z,4.77
2022-11-04T01:54:30.922Z,4.90
2022-11-04T01:57:23.527Z,5.43
2022-11-04T02:00:15.029Z,5.50
2022-11-04T02:03:06.329Z,5.97
2022-11-04T02:05:54.583Z,4.80
2022-11-04T02:08:42.653Z,4.70
2022-11-04T02:11:48.510Z,4.33
2022-11-04T02:14:36.413Z,5.30
2022-11-04T02:17:23.326Z,5.03
2022-11-04T02:20:19.456Z,5.13
2022-11-04T02:23:25.104Z,5.33
2022-11-04T02:26:15.062Z,4.80
2022-11-04T02:29:21.749Z,4.93
2022-11-04T02:32:11.472Z,4.53
2022-11-04T02:35:16.910Z,4.60
2022-11-04T02:38:25.651Z,5.03
2022-11-04T02:41:20.454Z,4.43
2022-11-04T02:44:16.537Z,4.27
2022-11-04T02:47:15.823Z,5.00
2022-11-04T02:50:10.055Z,4.83
2022-11-04T02:53:11.693Z,4.90
2022-11-04T02:56:00.923Z,5.47
2022-11-04T02:58:58.655Z,4.50
2022-11-04T03:01:49.311Z,5.73
2022-11-04T03:04:43.098Z,5.10
2022-11-04T03:07:35.052Z,5.17
2022-11-04T03:10:33.015Z,5.37
2022-11-04T03:13:33.780Z,5.60
2022-11-04T03:16:35.967Z,5.07
2022-11-04T03:19:57.569Z,5.60
2022-11-04T03:22:44.835Z,5.83
2022-11-04T03:25:41.062Z,5.80
2022-11-04T03:28:39.734Z,5.20
2022-11-04T03:31:37.102Z,4.73
2022-11-04T03:34:24.309Z,5.77
2022-11-04T03:37:11.479Z,5.50
2022-11-04T03:39:58.547Z,6.10
2022-11-04T03:42:50.585Z,7.37
2022-11-04T03:45:39.295Z,5.87
2022-11-04T03:48:26.452Z,5.57
2022-11-04T03:51:13.463Z,6.00
2022-11-04T03:54:01.022Z,5.73
2022-11-04T03:57:03.879Z,6.90
2022-11-04T04:00:10.087Z,6.77
2022-11-04T04:03:21.081Z,6.73
2022-11-04T04:06:18.235Z,7.37
2022-11-04T04:09:43.583Z,7.50
2022-11-04T04:12:40.336Z,8.07
2022-11-04T04:15:34.572Z,7.93
2022-11-04T04:18:32.947Z,7.80
2022-11-04T04:21:23.723Z,8.47
2022-11-04T04:24:33.006Z,8.33
2022-11-04T04:27:30.909Z,7.47
2022-11-04T04:30:18.105Z,8.13
2022-11-04T04:33:18.159Z,7.67
2022-11-04T04:36:08.716Z,7.83
2022-11-04T04:39:15.181Z,8.93
2022-11-04T04:42:21.969Z,8.57
2022-11-04T04:45:10.692Z,9.77
2022-11-04T04:47:58.094Z,8.43
2022-11-04T04:50:48.816Z,9.63
2022-11-04T04:53:35.826Z,9.00
2022-11-04T04:56:22.964Z,9.37
2022-11-04T04:59:09.921Z,10.00
2022-11-04T05:01:56.970Z,9.33
2022-11-04T05:04:43.998Z,9.40
2022-11-04T05:07:30.955Z,9.20
2022-11-04T05:10:18.706Z,8.70
2022-11-04T05:13:24.308Z,8.67
2022-11-04T05:16:11.481Z,8.83
2022-11-04T05:18:58.680Z,9.13
2022-11-04T05:21:45.619Z,8.50
2022-11-04T05:24:32.616Z,9.37
2022-11-04T05:27:19.761Z,8.93
2022-11-04T05:30:07.375Z,9.63
2022-11-04T05:32:57.323Z,8.80
2022-11-04T05:35:47.127Z,7.70
2022-11-04T05:38:34.171Z,8.37
2022-11-04T05:41:27.634Z,8.20
2022-11-04T05:44:15.787Z,8.70
2022-11-04T05:47:02.777Z,7.23
2022-11-04T05:49:49.732Z,7.73
2022-11-04T05:52:36.715Z,8.93
2022-11-04T05:55:24.046Z,8.30
2022-11-04T05:58:11.339Z,7.70
2022-11-04T06:01:22.911Z,7.40
2022-11-04T06:04:15.185Z,7.27
2022-11-04T06:07:02.125Z,7.37
2022-11-04T06:09:49.094Z,6.83
2022-11-04T06:12:36.260Z,6.50
2022-11-04T06:15:23.262Z,7.37
2022-11-04T06:18:10.551Z,7.30
2022-11-04T06:21:14.278Z,7.13
2022-11-04T06:24:02.187Z,6.50
2022-11-04T06:26:49.463Z,7.30
2022-11-04T06:29:40.184Z,7.73
2022-11-04T06:32:27.480Z,6.87
2022-11-04T06:35:14.435Z,6.90
2022-11-04T06:38:01.465Z,6.00
2022-11-04T06:40:48.472Z,6.33
2022-11-04T06:43:35.424Z,6.23
2022-11-04T06:46:42.289Z,5.77
2022-11-04T06:49:29.300Z,5.87
2022-11-04T06:52:16.237Z,5.83
2022-11-04T06:55:03.434Z,5.80
2022-11-04T06:57:50.402Z,5.03
2022-11-04T07:00:37.595Z,5.00
2022-11-04T07:03:24.554Z,5.10
2022-11-04T07:06:11.882Z,5.30
2022-11-04T07:09:00.807Z,5.03
2022-11-04T07:11:48.331Z,5.50
2022-11-04T07:14:35.325Z,4.93
2022-11-04T07:17:22.271Z,5.30
2022-11-04T07:20:13.028Z,5.27
2022-11-04T07:23:00.148Z,4.80
2022-11-04T07:25:47.621Z,4.70
2022-11-04T07:28:35.166Z,4.70
2022-11-04T07:31:22.405Z,4.57
2022-11-04T07:34:09.402Z,4.70
2022-11-04T07:36:56.362Z,4.90
2022-11-04T07:39:43.321Z,4.83
2022-11-04T07:42:30.268Z,4.37
2022-11-04T07:45:17.471Z,4.03
2022-11-04T07:48:04.476Z,3.63
2022-11-04T07:50:55.544Z,4.50
2022-11-04T07:53:42.671Z,4.57
2022-11-04T07:56:29.856Z,3.83
2022-11-04T07:59:16.850Z,4.20
2022-11-04T08:02:04.217Z,4.53
2022-11-04T08:04:51.286Z,3.90
2022-11-04T08:07:38.265Z,4.47
2022-11-04T08:10:25.409Z,4.37
2022-11-04T08:13:13.455Z,4.23
2022-11-04T08:16:06.480Z,4.20
2022-11-04T08:18:53.602Z,4.10
2022-11-04T08:21:40.601Z,4.30
2022-11-04T08:24:27.615Z,4.50
2022-11-04T08:27:15.557Z,4.90
2022-11-04T08:30:03.186Z,5.23
2022-11-04T08:32:50.201Z,4.57
2022-11-04T08:35:41.038Z,4.77
2022-11-04T08:38:29.111Z,4.90
2022-11-04T08:41:19.709Z,5.47
2022-11-04T08:44:07.735Z,5.10
2022-11-04T08:46:54.696Z,4.10
2022-11-04T08:49:42.058Z,5.47
2022-11-04T08:52:29.104Z,4.93
2022-11-04T08:55:16.150Z,5.30
2022-11-04T08:58:03.470Z,4.97
2022-11-04T09:00:51.146Z,5.13
2022-11-04T09:03:39.641Z,5.30
2022-11-04T09:06:30.380Z,5.10
2022-11-04T09:09:18.189Z,4.97
2022-11-04T09:12:08.493Z,4.70
2022-11-04T09:14:55.512Z,4.67
2022-11-04T09:17:44.240Z,5.30
2022-11-04T09:20:31.930Z,4.90
2022-11-04T09:23:19.141Z,4.80
2022-11-04T09:26:12.856Z,5.47
2022-11-04T09:29:00.270Z,5.60
2022-11-04T09:31:47.650Z,5.30
2022-11-04T09:34:34.824Z,5.40
2022-11-04T09:37:21.859Z,5.73
2022-11-04T09:40:15.865Z,5.90
2022-11-04T09:43:05.695Z,5.67
2022-11-04T09:45:52.843Z,5.40
2022-11-04T09:48:45.422Z,5.63
2022-11-04T09:51:53.149Z,5.37
2022-11-04T09:54:50.820Z,6.63
2022-11-04T09:57:37.836Z,5.37
2022-11-04T10:00:25.949Z,5.80
2022-11-04T10:03:37.763Z,5.60
2022-11-04T10:06:42.387Z,5.80
2022-11-04T10:09:52.903Z,5.03
2022-11-04T10:12:42.898Z,5.90
2022-11-04T10:15:43.110Z,5.07
2022-11-04T10:18:48.890Z,5.10
2022-11-04T10:22:09.892Z,4.93
2022-11-04T10:25:09.764Z,4.23
2022-11-04T10:27:57.927Z,4.50
2022-11-04T10:30:48.280Z,4.93
2022-11-04T10:33:40.968Z,4.17
2022-11-04T10:36:28.116Z,4.30
2022-11-04T10:39:34.472Z,4.10
2022-11-04T10:42:24.576Z,4.20
2022-11-04T10:45:13.779Z,3.83
2022-11-04T10:48:07.305Z,3.10
2022-11-04T10:50:56.180Z,3.17
2022-11-04T10:53:43.344Z,2.40
2022-11-04T10:56:36.559Z,2.20
2022-11-04T10:59:29.535Z,1.90
2022-11-04T11:02:17.265Z,2.20
2022-11-04T11:05:14.739Z,2.47
2022-11-04T11:08:01.710Z,1.90
2022-11-04T11:10:52.986Z,1.93
2022-11-04T11:13:43.177Z,1.90
2022-11-04T11:16:31.844Z,1.80
2022-11-04T11:19:21.958Z,2.03
2022-11-04T11:22:31.542Z,1.90
2022-11-04T11:25:31.854Z,2.30
2022-11-04T11:28:24.875Z,1.90
2022-11-04T11:31:18.686Z,2.10
2022-11-04T11:34:15.267Z,2.07
2022-11-04T11:37:04.825Z,2.10
2022-11-04T11:39:51.859Z,2.00
2022-11-04T11:42:42.048Z,1.93
2022-11-04T11:45:30.299Z,2.17
2022-11-04T11:48:32.204Z,2.13
2022-11-04T11:51:40.180Z,1.77
2022-11-04T11:54:33.712Z,2.10
2022-11-04T11:57:29.347Z,2.20
2022-11-04T12:03:31.128Z,2.10
2022-11-04T12:10:51.093Z,2.20
2022-11-04T12:13:48.518Z,2.57
2022-11-04T12:16:57.596Z,2.63
2022-11-04T12:20:10.156Z,2.63
2022-11-04T12:23:01.076Z,2.57
2022-11-04T12:26:25.933Z,2.70
2022-11-04T12:29:37.138Z,2.50
2022-11-04T12:32:37.392Z,3.40
2022-11-04T12:35:35.518Z,3.33
2022-11-04T12:38:28.645Z,3.73
2022-11-04T12:41:52.246Z,2.53
2022-11-04T12:44:54.071Z,1.97
2022-11-04T12:47:46.379Z,2.30
2022-11-04T12:50:48.972Z,2.03
2022-11-04T12:54:01.685Z,2.10
2022-11-04T12:56:58.673Z,2.10
2022-11-04T13:00:07.608Z,1.93
2022-11-04T13:03:21.636Z,1.97
2022-11-04T13:06:31.322Z,2.00
2022-11-04T13:09:29.000Z,1.97
2022-11-04T13:12:19.712Z,1.90
2022-11-04T13:15:20.946Z,1.57
2022-11-04T13:18:11.385Z,1.77
2022-11-04T13:21:06.565Z,1.80
2022-11-04T13:24:15.696Z,1.60
2022-11-04T13:27:13.223Z,1.90
2022-11-04T13:30:27.385Z,1.60
2022-11-04T13:33:23.878Z,1.70
2022-11-04T13:36:17.240Z,1.40
2022-11-04T13:39:17.736Z,1.57
2022-11-04T13:42:32.307Z,1.60
2022-11-04T13:45:20.220Z,1.20
2022-11-04T13:48:11.600Z,1.93
2022-11-04T13:51:06.596Z,1.50
2022-11-04T13:53:56.677Z,1.40
2022-11-04T13:56:43.732Z,1.50
2022-11-04T13:59:31.515Z,1.53
2022-11-04T14:02:21.461Z,1.40
2022-11-04T14:05:27.148Z,1.50
2022-11-04T14:08:16.970Z,1.30
2022-11-04T14:11:07.363Z,1.27
2022-11-04T14:14:02.366Z,1.40
2022-11-04T14:16:49.391Z,1.43
2022-11-04T14:20:00.896Z,1.47
2022-11-04T14:22:52.863Z,2.17
2022-11-04T14:25:44.342Z,1.57
2022-11-04T14:28:32.941Z,1.40
2022-11-04T14:31:40.083Z,2.30
2022-11-04T14:34:28.381Z,1.47
2022-11-04T14:37:15.291Z,1.50
2022-11-04T14:40:05.520Z,1.90
2022-11-04T14:42:58.229Z,1.63
2022-11-04T14:45:45.534Z,1.80
2022-11-04T14:48:33.113Z,1.40
2022-11-04T14:51:32.460Z,1.57
2022-11-04T14:54:22.549Z,1.73
2022-11-04T14:57:21.496Z,1.70
2022-11-04T15:00:35.360Z,1.60
2022-11-04T15:06:53.450Z,1.40
2022-11-04T15:09:46.865Z,1.40
2022-11-04T15:12:52.323Z,2.00
2022-11-04T15:15:48.632Z,1.60
2022-11-04T15:18:41.995Z,1.70
2022-11-04T15:21:29.086Z,1.37
2022-11-04T15:24:17.698Z,1.23
2022-11-04T15:27:07.016Z,1.40
2022-11-04T15:29:55.247Z,2.27
2022-11-04T15:32:56.704Z,1.40
2022-11-04T15:35:44.061Z,1.50
2022-11-04T15:38:32.609Z,1.93
2022-11-04T15:41:40.803Z,1.50
2022-11-04T15:44:30.788Z,1.43
2022-11-04T15:47:17.724Z,1.63
2022-11-04T15:50:21.615Z,1.60
2022-11-04T15:53:10.393Z,1.70
2022-11-04T15:55:57.835Z,1.23
2022-11-04T15:58:45.651Z,1.63
2022-11-04T16:01:33.256Z,1.30
2022-11-04T16:04:24.586Z,1.50
2022-11-04T16:07:11.514Z,1.47
2022-11-04T16:09:58.477Z,1.77
2022-11-04T16:12:45.752Z,1.47
2022-11-04T16:15:34.258Z,1.77
2022-11-04T16:18:58.708Z,1.87
2022-11-04T16:21:46.796Z,1.47
2022-11-04T16:24:36.617Z,1.73
2022-11-04T16:27:24.984Z,1.73
2022-11-04T16:30:20.605Z,1.87
2022-11-04T16:33:10.560Z,1.20
2022-11-04T16:35:57.791Z,1.50
2022-11-04T16:38:44.763Z,1.37
2022-11-04T16:41:36.476Z,1.67
2022-11-04T16:44:24.915Z,1.50
2022-11-04T16:47:12.130Z,2.10
2022-11-04T16:50:02.640Z,1.60
2022-11-04T16:52:51.072Z,1.80
2022-11-04T16:55:41.216Z,1.97
2022-11-04T16:58:28.484Z,1.37
2022-11-04T17:01:15.809Z,1.67
2022-11-04T17:04:04.189Z,1.83
2022-11-04T17:06:51.167Z,1.70
2022-11-04T17:09:38.160Z,1.70
2022-11-04T17:12:25.281Z,2.40
2022-11-04T17:15:13.704Z,2.20
2022-11-04T17:18:00.653Z,1.97
2022-11-04T17:20:55.559Z,2.50
2022-11-04T17:23:43.133Z,2.00
2022-11-04T17:26:30.092Z,2.07
2022-11-04T17:29:17.601Z,1.43
2022-11-04T17:32:05.220Z,1.57
2022-11-04T17:34:52.815Z,1.17
2022-11-04T17:37:39.952Z,2.20
2022-11-04T17:40:26.938Z,3.60
2022-11-04T17:43:32.437Z,6.00
2022-11-04T17:46:34.892Z,5.47
2022-11-04T17:49:23.854Z,4.23
2022-11-04T17:52:10.926Z,2.90
2022-11-04T17:54:57.947Z,2.67
2022-11-04T17:57:44.883Z,2.50
2022-11-04T18:00:32.126Z,1.93
2022-11-04T18:03:19.091Z,1.80
2022-11-04T18:06:06.587Z,1.93
2022-11-04T18:08:55.689Z,2.00
2022-11-04T18:12:01.889Z,2.03
2022-11-04T18:14:49.278Z,2.00
2022-11-04T18:17:43.800Z,2.30
2022-11-04T18:20:30.826Z,2.03
2022-11-04T18:23:18.162Z,2.10
2022-11-04T18:26:11.638Z,1.80
2022-11-04T18:28:59.314Z,1.97
2022-11-04T18:31:49.203Z,1.90
2022-11-04T18:34:36.617Z,2.20
2022-11-04T18:37:23.920Z,2.00
2022-11-04T18:40:11.774Z,1.97
2022-11-04T18:42:58.739Z,2.10
2022-11-04T18:45:45.659Z,1.80
2022-11-04T18:48:32.602Z,1.90
2022-11-04T18:51:22.234Z,2.33
2022-11-04T18:54:11.380Z,2.00
2022-11-04T18:56:58.362Z,2.13
2022-11-04T18:59:46.076Z,2.20
2022-11-04T19:02:33.386Z,1.93
2022-11-04T19:05:20.642Z,2.03
2022-11-04T19:08:07.905Z,2.30
2022-11-04T19:11:01.076Z,2.23
2022-11-04T19:13:57.977Z,2.33
2022-11-04T19:16:44.982Z,1.83
2022-11-04T19:19:31.968Z,1.80
2022-11-04T19:22:19.291Z,2.00
2022-11-04T19:25:06.899Z,2.10
2022-11-04T19:28:18.629Z,3.10
2022-11-04T19:31:02.409Z,2.40
2022-11-04T19:33:50.233Z,2.33
2022-11-04T19:36:37.544Z,2.57
2022-11-04T19:39:24.567Z,2.33
2022-11-04T19:42:34.876Z,2.53
2022-11-04T19:45:22.304Z,2.53
2022-11-04T19:48:10.090Z,2.50
2022-11-04T19:50:57.339Z,2.90
2022-11-04T19:53:44.562Z,2.30
2022-11-04T19:56:33.587Z,2.60
2022-11-04T19:59:20.640Z,2.40
2022-11-04T20:02:09.418Z,2.67
2022-11-04T20:04:56.443Z,2.50
2022-11-04T20:07:43.429Z,2.67
2022-11-04T20:10:30.358Z,3.00
2022-11-04T20:13:38.362Z,2.87
2022-11-04T20:16:33.055Z,2.93
2022-11-04T20:19:22.966Z,2.83
2022-11-04T20:22:10.548Z,2.80
2022-11-04T20:24:58.045Z,2.40
2022-11-04T20:27:45.031Z,2.60
2022-11-04T20:30:32.039Z,3.00
2022-11-04T20:33:19.112Z,3.03
2022-11-04T20:36:07.383Z,2.40
2022-11-04T20:39:03.894Z,3.47
2022-11-04T20:41:51.092Z,2.57
2022-11-04T20:44:38.511Z,3.07
2022-11-04T20:47:25.472Z,2.33
2022-11-04T20:50:12.464Z,2.80
2022-11-04T20:52:59.498Z,2.83
2022-11-04T20:55:48.813Z,2.60
2022-11-04T20:58:37.705Z,2.50
2022-11-04T21:01:27.444Z,2.90
2022-11-04T21:04:20.185Z,2.80
2022-11-04T21:07:07.414Z,2.83
2022-11-04T21:09:54.380Z,3.50
2022-11-04T21:12:41.410Z,2.70
2022-11-04T21:15:40.634Z,2.90
2022-11-04T21:18:28.071Z,3.83
2022-11-04T21:21:16.584Z,2.83
2022-11-04T21:24:05.985Z,2.50
2022-11-04T21:26:53.048Z,2.87
2022-11-04T21:29:40.065Z,2.63
2022-11-04T21:32:27.188Z,2.97
2022-11-04T21:35:14.117Z,2.80
2022-11-04T21:38:05.014Z,3.30
2022-11-04T21:40:52.012Z,3.93
2022-11-04T21:43:39.218Z,2.73
2022-11-04T21:46:28.020Z,2.77
2022-11-04T21:49:15.033Z,2.80
2022-11-04T21:52:02.358Z,3.13
2022-11-04T21:54:49.440Z,3.00
2022-11-04T21:57:37.100Z,3.50
2022-11-04T22:00:24.158Z,3.00
2022-11-04T22:03:11.786Z,3.40
2022-11-04T22:06:02.423Z,2.93
2022-11-04T22:08:54.274Z,2.80
2022-11-04T22:11:41.626Z,3.07
2022-11-04T22:14:29.450Z,2.80
2022-11-04T22:17:16.647Z,2.70
2022-11-04T22:20:04.705Z,2.80
2022-11-04T22:22:51.667Z,3.03
2022-11-04T22:25:38.671Z,3.27
2022-11-04T22:28:25.694Z,2.70
2022-11-04T22:31:19.588Z,2.97
2022-11-04T22:34:07.059Z,3.13
2022-11-04T22:36:54.034Z,3.53
2022-11-04T22:39:41.016Z,3.47
2022-11-04T22:42:28.055Z,3.00
2022-11-04T22:45:16.876Z,3.73
2022-11-04T22:48:04.318Z,2.83
2022-11-04T22:50:56.745Z,3.00
2022-11-04T22:53:44.019Z,3.13
2022-11-04T22:56:30.987Z,3.20
2022-11-04T22:59:17.933Z,3.97
2022-11-04T23:02:04.984Z,3.40
2022-11-04T23:04:52.039Z,3.33
2022-11-04T23:07:39.027Z,3.37
2022-11-04T23:10:48.823Z,3.80
2022-11-04T23:13:54.621Z,3.47
2022-11-04T23:17:02.361Z,3.43
2022-11-04T23:19:50.307Z,3.60
2022-11-04T23:22:56.163Z,3.87
2022-11-04T23:25:43.143Z,4.03
2022-11-04T23:28:48.680Z,3.83
2022-11-04T23:31:35.917Z,3.30
2022-11-04T23:34:42.053Z,3.67
2022-11-04T23:37:29.027Z,3.53
2022-11-04T23:40:16.019Z,3.90
2022-11-04T23:43:02.975Z,3.90
2022-11-04T23:46:11.100Z,3.10
2022-11-04T23:49:17.321Z,3.90
2022-11-04T23:52:23.231Z,3.83
2022-11-04T23:55:28.977Z,3.30
2022-11-04T23:58:34.399Z,3.40
